Airfield :
LOGIN :

Register | Disclaimer

   EN    FR    IT 

 










Legend :    VFR   Marginal VFR   IFR   Intensive IFR   Very Intensive IFR
Visi :
Ceiling :
>= 8 km
>= 3000ft
5 to 8 km
1000 to 3000 ft
1500m to 5 km
500 to 1000 ft
800 to 1500m
200 to 500 ft
< 800m
< 200 ft
Symbols :   Thunderstorms  Fog  Heavy snow  Heavy precipitations  Wind > 20 kt
SIGMETs :     Misc.  Thunderstorms  Icing  Turbulence  Mountain Waves  Volcanic Ashes







- Airport Elevation : 84 ft
- Download approach charts


LFBC - Cazaux

CURRENT METAR :
  • 160630Z AUTO 11002KT 5000 // NSC 18/17 Q1019

EXPIRED METARs :
  • 160600Z AUTO 12006KT 4400 // FEW001 BKN120 BKN140 17/17 Q1019
  • 160530Z AUTO 31002KT 9999 // ////// 19/18 Q1019

TAF AMD TAF LFBC
Valid from the 16 at 05:00 until the 17 at 03:00 UTC


160550Z 1605/1703 18003KT 7000 MIFG NSC
TEMPO 1605/1607 0300 BCFG
BECMG 1611/1613 32010KT
BECMG 1616/1618 35005KT
BECMG 1623/1701 3000 BR OVC002
TEMPO 1701/1703 0200 FG VV///
No reported NOTAMs for that airfield.



MET'MAP, your aeronautical weather chart ! - Copyright ORBIFLY December 2007 - Disclaimer

ORBIFLY MET'MAP TEAM :

Programming & Development : Alexandra Zaïnal
Concept & Development : Baudouin d'Aumeries
Co-Development & Prog : Marc-Olivier Méhu
Technical & hardware support : Manuel Goepfert

Contact : metmap@orbifly.com




SOURCES & CREDITS :

   NOAA